createdAt,value
2017-01-18T00:00:09.904Z,69.8
2017-01-18T00:01:09.913Z,69.8
2017-01-18T00:02:09.928Z,69.9
2017-01-18T00:03:09.937Z,70.09
2017-01-18T00:04:09.947Z,69.8
2017-01-18T00:05:09.962Z,69.8
2017-01-18T00:06:09.970Z,69.71
2017-01-18T00:07:09.982Z,69.99
2017-01-18T00:08:09.994Z,69.99
2017-01-18T00:09:10.003Z,69.71
2017-01-18T00:10:10.014Z,69.71
2017-01-18T00:11:10.028Z,69.9
2017-01-18T00:12:10.035Z,70.18
2017-01-18T00:13:10.049Z,70.09
2017-01-18T00:14:10.062Z,70.09
2017-01-18T00:15:10.070Z,69.71
2017-01-18T00:16:10.082Z,69.9
2017-01-18T00:17:10.091Z,69.8
2017-01-18T00:18:10.100Z,70.09
2017-01-18T00:19:10.118Z,69.61
2017-01-18T00:20:10.123Z,69.8
2017-01-18T00:21:10.140Z,69.9
2017-01-18T00:22:10.153Z,69.71
2017-01-18T00:23:10.161Z,69.71
2017-01-18T00:24:10.171Z,69.71
2017-01-18T00:25:10.181Z,69.9
2017-01-18T00:26:10.193Z,69.99
2017-01-18T00:27:10.206Z,69.9
2017-01-18T00:28:10.214Z,69.8
2017-01-18T00:29:10.228Z,69.8
2017-01-18T00:30:10.239Z,69.71
2017-01-18T00:31:10.249Z,70.18
2017-01-18T00:32:10.260Z,69.52
2017-01-18T00:33:10.273Z,69.52
2017-01-18T00:34:10.282Z,69.61
2017-01-18T00:35:10.292Z,69.42
2017-01-18T00:36:10.306Z,70.09
2017-01-18T00:37:10.317Z,70.09
2017-01-18T00:38:10.335Z,69.99
2017-01-18T00:39:10.338Z,70.18
2017-01-18T00:40:10.352Z,70.09
2017-01-18T00:41:10.360Z,70.09
2017-01-18T00:42:10.369Z,70.09
2017-01-18T00:43:10.382Z,69.99
2017-01-18T00:44:10.397Z,69.99
2017-01-18T00:45:10.405Z,70.09
2017-01-18T00:46:10.416Z,70.18
2017-01-18T00:47:10.429Z,70.09
2017-01-18T00:48:10.438Z,69.9
2017-01-18T00:49:10.447Z,69.9
2017-01-18T00:50:10.461Z,70.09
2017-01-18T00:51:10.471Z,69.99
2017-01-18T00:52:10.482Z,69.99
2017-01-18T00:53:10.492Z,70.09
2017-01-18T00:54:10.507Z,70.09
2017-01-18T00:55:10.518Z,70.09
2017-01-18T00:56:10.527Z,70.09
2017-01-18T00:57:10.543Z,69.9
2017-01-18T00:58:10.547Z,69.8
2017-01-18T00:59:10.559Z,69.71
2017-01-18T01:00:10.572Z,69.9
2017-01-18T01:01:10.587Z,69.71
2017-01-18T01:02:10.602Z,69.99
2017-01-18T01:03:10.608Z,69.71
2017-01-18T01:04:10.618Z,70.18
2017-01-18T01:05:10.627Z,69.99
2017-01-18T01:06:10.639Z,70.18
2017-01-18T01:07:10.651Z,69.71
2017-01-18T01:08:10.660Z,69.71
2017-01-18T01:09:10.669Z,70.09
2017-01-18T01:10:10.681Z,69.71
2017-01-18T01:11:10.693Z,69.9
2017-01-18T01:12:10.709Z,69.99
2017-01-18T01:13:10.717Z,69.99
2017-01-18T01:14:10.733Z,70.18
2017-01-18T01:15:10.739Z,69.9
2017-01-18T01:16:10.751Z,69.99
2017-01-18T01:17:10.761Z,69.9
2017-01-18T01:18:10.771Z,69.71
2017-01-18T01:19:10.789Z,70.18
2017-01-18T01:20:10.795Z,69.9
2017-01-18T01:21:10.813Z,69.71
2017-01-18T01:22:10.815Z,69.52
2017-01-18T01:23:10.827Z,70.09
2017-01-18T01:24:10.840Z,70.18
2017-01-18T01:25:10.850Z,69.42
2017-01-18T01:26:10.860Z,69.61
2017-01-18T01:27:10.872Z,69.33
2017-01-18T01:28:10.882Z,69.61
2017-01-18T01:29:10.894Z,69.33
2017-01-18T01:30:10.912Z,68.95
2017-01-18T01:31:10.920Z,69.23
2017-01-18T01:32:10.928Z,69.33
2017-01-18T01:33:10.939Z,69.23
2017-01-18T01:34:10.949Z,69.13
2017-01-18T01:35:10.964Z,69.13
2017-01-18T01:36:10.999Z,69.33
2017-01-18T01:37:10.981Z,69.42
2017-01-18T01:38:10.995Z,69.42
2017-01-18T01:39:11.005Z,69.13
2017-01-18T01:40:11.013Z,69.13
2017-01-18T01:41:11.026Z,69.42
2017-01-18T01:42:11.037Z,69.04
2017-01-18T01:43:11.049Z,69.33
2017-01-18T01:44:11.060Z,69.23
2017-01-18T01:45:11.069Z,69.04
2017-01-18T01:46:11.084Z,69.8
2017-01-18T01:47:11.090Z,69.33
2017-01-18T01:48:11.103Z,69.13
2017-01-18T01:49:11.120Z,69.42
2017-01-18T01:50:11.125Z,69.42
2017-01-18T01:51:11.135Z,69.13
2017-01-18T01:52:11.147Z,69.42
2017-01-18T01:53:11.157Z,69.23
2017-01-18T01:54:11.168Z,69.42
2017-01-18T01:55:11.178Z,69.13
2017-01-18T01:56:11.191Z,69.13
2017-01-18T01:57:11.206Z,69.04
2017-01-18T01:58:11.211Z,68.85
2017-01-18T01:59:11.230Z,69.04
2017-01-18T02:00:11.237Z,69.33
2017-01-18T02:01:11.245Z,69.23
2017-01-18T02:02:11.256Z,69.23
2017-01-18T02:03:11.299Z,69.13
2017-01-18T02:04:11.279Z,68.95
2017-01-18T02:05:11.290Z,69.23
2017-01-18T02:06:11.300Z,69.23
2017-01-18T02:07:11.312Z,68.95
2017-01-18T02:08:11.321Z,69.8
2017-01-18T02:09:11.332Z,69.13
2017-01-18T02:10:11.343Z,69.13
2017-01-18T02:11:11.355Z,69.42
2017-01-18T02:12:11.372Z,69.99
2017-01-18T02:13:11.406Z,68.95
2017-01-18T02:14:11.396Z,69.04
2017-01-18T02:15:11.409Z,68.95
2017-01-18T02:16:11.413Z,68.76
2017-01-18T02:17:11.431Z,69.04
2017-01-18T02:18:11.430Z,69.04
2017-01-18T02:19:11.443Z,69.42
2017-01-18T02:20:11.528Z,69.04
2017-01-18T02:21:11.464Z,69.13
2017-01-18T02:22:11.477Z,69.23
2017-01-18T02:23:11.493Z,69.42
2017-01-18T02:24:11.498Z,69.04
2017-01-18T02:25:11.513Z,69.23
2017-01-18T02:26:11.520Z,69.04
2017-01-18T02:27:11.533Z,68.95
2017-01-18T02:28:11.543Z,69.13
2017-01-18T02:29:11.553Z,69.13
2017-01-18T02:30:11.566Z,68.95
2017-01-18T02:31:11.574Z,68.76
2017-01-18T02:32:11.586Z,69.04
2017-01-18T02:33:11.598Z,69.13
2017-01-18T02:34:11.610Z,69.04
2017-01-18T02:35:11.643Z,69.23
2017-01-18T02:36:11.630Z,68.85
2017-01-18T02:37:11.640Z,69.04
2017-01-18T02:38:12.057Z,68.76
2017-01-18T02:39:11.666Z,69.33
2017-01-18T02:40:11.678Z,68.66
2017-01-18T02:41:11.693Z,68.66
2017-01-18T02:42:11.701Z,69.04
2017-01-18T02:43:11.706Z,68.85
2017-01-18T02:44:11.718Z,69.23
2017-01-18T02:45:11.734Z,69.04
2017-01-18T02:46:11.738Z,69.23
2017-01-18T02:47:11.748Z,69.13
2017-01-18T02:48:11.761Z,69.04
2017-01-18T02:49:11.780Z,68.76
2017-01-18T02:50:11.784Z,69.01
2017-01-18T02:51:11.795Z,68.76
2017-01-18T02:52:11.806Z,68.85
2017-01-18T02:53:11.815Z,69.13
2017-01-18T02:54:11.824Z,69.23
2017-01-18T02:55:11.836Z,69.04
2017-01-18T02:56:11.845Z,69.23
2017-01-18T02:57:11.861Z,69.04
2017-01-18T02:58:11.869Z,69.04
2017-01-18T02:59:11.883Z,69.42
2017-01-18T03:00:11.889Z,69.33
2017-01-18T03:01:11.903Z,69.23
2017-01-18T03:02:11.911Z,69.33
2017-01-18T03:03:11.926Z,69.04
2017-01-18T03:04:11.935Z,69.13
2017-01-18T03:05:11.949Z,68.95
2017-01-18T03:06:11.956Z,69.04
2017-01-18T03:07:11.967Z,69.04
2017-01-18T03:08:11.976Z,68.95
2017-01-18T03:09:11.994Z,68.95
2017-01-18T03:10:11.997Z,68.76
2017-01-18T03:11:12.010Z,68.85
2017-01-18T03:12:12.029Z,68.95
2017-01-18T03:13:12.032Z,68.95
2017-01-18T03:14:12.044Z,68.85
2017-01-18T03:15:12.052Z,69.13
2017-01-18T03:16:12.065Z,69.13
2017-01-18T03:17:12.075Z,68.85
2017-01-18T03:18:12.086Z,68.85
2017-01-18T03:19:12.099Z,68.85
2017-01-18T03:20:12.106Z,69.13
2017-01-18T03:21:12.122Z,69.04
2017-01-18T03:22:12.131Z,68.85
2017-01-18T03:23:12.141Z,68.95
2017-01-18T03:24:12.153Z,68.95
2017-01-18T03:25:12.163Z,69.13
2017-01-18T03:26:12.173Z,69.33
2017-01-18T03:27:12.184Z,69.01
2017-01-18T03:28:12.198Z,69.23
2017-01-18T03:29:12.205Z,69.23
2017-01-18T03:30:12.218Z,68.85
2017-01-18T03:31:12.229Z,68.95
2017-01-18T03:32:12.244Z,69.57
2017-01-18T03:33:12.254Z,68.85
2017-01-18T03:34:12.263Z,68.73
2017-01-18T03:35:12.271Z,68.85
2017-01-18T03:36:12.282Z,68.54
2017-01-18T03:37:12.300Z,68.73
2017-01-18T03:38:12.303Z,68.73
2017-01-18T03:39:12.316Z,68.57
2017-01-18T03:40:12.325Z,68.73
2017-01-18T03:41:12.337Z,69.01
2017-01-18T03:42:12.380Z,68.82
2017-01-18T03:43:12.356Z,69.01
2017-01-18T03:44:12.368Z,68.95
2017-01-18T03:45:12.381Z,68.73
2017-01-18T03:46:12.389Z,68.91
2017-01-18T03:47:12.404Z,69.04
2017-01-18T03:48:12.413Z,68.35
2017-01-18T03:49:12.427Z,68.19
2017-01-18T03:50:12.435Z,68.06
2017-01-18T03:51:12.444Z,68.25
2017-01-18T03:52:12.456Z,68.25
2017-01-18T03:53:12.465Z,68.15
2017-01-18T03:54:12.476Z,68.29
2017-01-18T03:55:12.486Z,68.38
2017-01-18T03:56:12.501Z,68.06
2017-01-18T03:57:12.512Z,68.54
2017-01-18T03:58:12.521Z,68.25
2017-01-18T03:59:12.530Z,68.54
2017-01-18T04:00:12.544Z,68.91
2017-01-18T04:01:12.555Z,68.91
2017-01-18T04:02:12.564Z,68.63
2017-01-18T04:03:12.577Z,68.73
2017-01-18T04:04:12.586Z,68.82
2017-01-18T04:05:12.600Z,68.95
2017-01-18T04:06:12.608Z,68.44
2017-01-18T04:07:12.620Z,68.35
2017-01-18T04:08:12.629Z,68.15
2017-01-18T04:09:12.645Z,69.01
2017-01-18T04:10:12.655Z,67.96
2017-01-18T04:11:12.661Z,68.25
2017-01-18T04:12:12.674Z,68.35
2017-01-18T04:13:12.684Z,68.35
2017-01-18T04:14:12.695Z,68.15
2017-01-18T04:15:12.706Z,68.15
2017-01-18T04:16:12.724Z,68.25
2017-01-18T04:17:12.729Z,68.06
2017-01-18T04:18:12.739Z,68.25
2017-01-18T04:19:12.752Z,68.06
2017-01-18T04:20:12.757Z,68.06
2017-01-18T04:21:12.767Z,68.35
2017-01-18T04:22:12.780Z,68.35
2017-01-18T04:23:12.790Z,68.44
2017-01-18T04:24:12.802Z,69.1
2017-01-18T04:25:12.812Z,68.91
2017-01-18T04:26:12.820Z,68.82
2017-01-18T04:27:12.833Z,68.91
2017-01-18T04:28:12.842Z,68.73
2017-01-18T04:29:12.853Z,68.35
2017-01-18T04:30:12.867Z,68.25
2017-01-18T04:31:12.874Z,68.25
2017-01-18T04:32:12.885Z,68.06
2017-01-18T04:33:12.893Z,67.96
2017-01-18T04:34:12.907Z,68.06
2017-01-18T04:35:12.914Z,67.96
2017-01-18T04:36:12.927Z,68.06
2017-01-18T04:37:12.940Z,68.25
2017-01-18T04:38:12.951Z,68.35
2017-01-18T04:39:12.961Z,68.35
2017-01-18T04:40:12.971Z,68.25
2017-01-18T04:41:12.983Z,67.96
2017-01-18T04:42:12.995Z,67.96
2017-01-18T04:43:13.002Z,68.63
2017-01-18T04:44:13.019Z,68.54
2017-01-18T04:45:13.024Z,68.25
2017-01-18T04:46:13.035Z,68.35
2017-01-18T04:47:13.051Z,69.1
2017-01-18T04:48:13.054Z,69.01
2017-01-18T04:49:13.071Z,68.73
2017-01-18T04:50:13.080Z,69.1
2017-01-18T04:51:13.091Z,68.54
2017-01-18T04:52:13.098Z,69.01
2017-01-18T04:53:13.108Z,68.82
2017-01-18T04:54:13.121Z,69.01
2017-01-18T04:55:13.132Z,68.82
2017-01-18T04:56:13.147Z,69.01
2017-01-18T04:57:13.151Z,68.63
2017-01-18T04:58:13.164Z,68.73
2017-01-18T04:59:13.178Z,68.73
2017-01-18T05:00:13.182Z,68.73
2017-01-18T05:01:13.214Z,68.73
2017-01-18T05:02:13.205Z,68.73
2017-01-18T05:03:13.220Z,68.73
2017-01-18T05:04:13.226Z,68.91
2017-01-18T05:05:13.242Z,68.73
2017-01-18T05:06:13.248Z,68.63
2017-01-18T05:07:13.258Z,68.73
2017-01-18T05:08:13.270Z,68.91
2017-01-18T05:09:13.285Z,68.73
2017-01-18T05:10:13.293Z,68.54
2017-01-18T05:11:13.305Z,68.73
2017-01-18T05:12:13.318Z,68.73
2017-01-18T05:13:13.325Z,68.73
2017-01-18T05:14:13.335Z,68.73
2017-01-18T05:15:13.344Z,68.63
2017-01-18T05:16:13.356Z,68.73
2017-01-18T05:17:13.365Z,68.73
2017-01-18T05:18:13.381Z,68.54
2017-01-18T05:19:13.388Z,68.73
2017-01-18T05:20:13.397Z,68.82
2017-01-18T05:21:13.412Z,68.73
2017-01-18T05:22:13.420Z,68.82
2017-01-18T05:23:13.432Z,69.2
2017-01-18T05:24:13.442Z,69.2
2017-01-18T05:25:13.453Z,69.38
2017-01-18T05:26:13.466Z,69.38
2017-01-18T05:27:13.472Z,69.48
2017-01-18T05:28:13.485Z,69.1
2017-01-18T05:29:13.493Z,69.29
2017-01-18T05:30:13.505Z,69.38
2017-01-18T05:31:13.514Z,69.1
2017-01-18T05:32:13.527Z,69.01
2017-01-18T05:33:13.537Z,69.1
2017-01-18T05:34:13.546Z,69.01
2017-01-18T05:35:13.560Z,69.01
2017-01-18T05:36:13.569Z,69.38
2017-01-18T05:37:13.582Z,69.01
2017-01-18T05:38:13.591Z,68.82
2017-01-18T05:39:13.603Z,68.63
2017-01-18T05:40:14.011Z,68.82
2017-01-18T05:41:13.623Z,68.73
2017-01-18T05:42:13.634Z,68.63
2017-01-18T05:43:13.648Z,68.82
2017-01-18T05:44:13.659Z,68.63
2017-01-18T05:45:13.667Z,69.38
2017-01-18T05:46:13.688Z,68.91
2017-01-18T05:47:13.692Z,68.91
2017-01-18T05:48:13.701Z,68.91
2017-01-18T05:49:13.712Z,68.73
2017-01-18T05:50:13.722Z,68.82
2017-01-18T05:51:13.739Z,68.73
2017-01-18T05:52:13.745Z,68.73
2017-01-18T05:53:13.753Z,68.82
2017-01-18T05:54:13.767Z,68.63
2017-01-18T05:55:13.773Z,68.54
2017-01-18T05:56:13.786Z,69.57
2017-01-18T05:57:13.795Z,69.1
2017-01-18T05:58:13.813Z,69.2
2017-01-18T05:59:13.817Z,69.38
2017-01-18T06:00:13.828Z,69.2
2017-01-18T06:01:13.841Z,69.01
2017-01-18T06:02:13.851Z,69.01
2017-01-18T06:03:13.860Z,69.01
2017-01-18T06:04:13.877Z,69.01
2017-01-18T06:05:13.884Z,69.01
2017-01-18T06:06:13.894Z,68.91
2017-01-18T06:07:13.906Z,69.2
2017-01-18T06:08:13.915Z,69.01
2017-01-18T06:09:13.929Z,69.2
2017-01-18T06:10:13.937Z,69.01
2017-01-18T06:11:13.948Z,69.2
2017-01-18T06:12:13.957Z,69.01
2017-01-18T06:13:13.970Z,69.01
2017-01-18T06:14:13.981Z,69.01
2017-01-18T06:15:13.994Z,69.1
2017-01-18T06:16:14.000Z,69.29
2017-01-18T06:17:14.012Z,69.29
2017-01-18T06:18:14.046Z,69.29
2017-01-18T06:19:14.037Z,69.01
2017-01-18T06:20:14.044Z,69.1
2017-01-18T06:21:14.058Z,69.29
2017-01-18T06:22:14.064Z,69.01
2017-01-18T06:23:14.077Z,69.1
2017-01-18T06:24:14.085Z,69.01
2017-01-18T06:25:14.098Z,69.2
2017-01-18T06:26:14.108Z,69.1
2017-01-18T06:27:14.130Z,69.01
2017-01-18T06:28:14.129Z,69.2
2017-01-18T06:29:14.144Z,69.01
2017-01-18T06:30:14.158Z,69.1
2017-01-18T06:31:14.173Z,69.1
2017-01-18T06:32:14.173Z,69.29
2017-01-18T06:33:14.183Z,69.01
2017-01-18T06:34:14.195Z,69.2
2017-01-18T06:35:14.206Z,69.38
2017-01-18T06:36:14.219Z,69.1
2017-01-18T06:37:14.231Z,69.01
2017-01-18T06:38:14.237Z,69.01
2017-01-18T06:39:14.248Z,68.91
2017-01-18T06:40:14.261Z,68.63
2017-01-18T06:41:14.273Z,68.82
2017-01-18T06:42:14.282Z,68.82
2017-01-18T06:43:14.297Z,69.48
2017-01-18T06:44:14.303Z,68.73
2017-01-18T06:45:14.312Z,68.91
2017-01-18T06:46:14.324Z,68.82
2017-01-18T06:47:14.335Z,68.91
2017-01-18T06:48:14.376Z,68.82
2017-01-18T06:49:14.356Z,68.91
2017-01-18T06:50:14.365Z,68.91
2017-01-18T06:51:14.379Z,68.63
2017-01-18T06:52:14.388Z,68.82
2017-01-18T06:53:14.408Z,68.82
2017-01-18T06:54:14.412Z,68.82
2017-01-18T06:55:14.421Z,69.01
2017-01-18T06:56:14.433Z,69.2
2017-01-18T06:57:14.443Z,69.29
2017-01-18T06:58:14.457Z,68.73
2017-01-18T06:59:14.464Z,68.82
2017-01-18T07:00:14.479Z,68.91
2017-01-18T07:01:14.485Z,68.82
2017-01-18T07:02:14.504Z,68.82
2017-01-18T07:03:14.512Z,69.1
2017-01-18T07:04:14.519Z,68.91
2017-01-18T07:05:14.534Z,68.82
2017-01-18T07:06:14.548Z,69.2
2017-01-18T07:07:14.550Z,68.73
2017-01-18T07:08:14.565Z,69.38
2017-01-18T07:09:14.573Z,68.82
2017-01-18T07:10:14.585Z,68.91
2017-01-18T07:11:14.596Z,68.82
2017-01-18T07:12:14.605Z,68.91
2017-01-18T07:13:14.618Z,68.82
2017-01-18T07:14:14.627Z,68.73
2017-01-18T07:15:14.641Z,68.91
2017-01-18T07:16:14.650Z,68.82
2017-01-18T07:17:14.662Z,68.82
2017-01-18T07:18:14.671Z,68.82
2017-01-18T07:19:14.683Z,68.73
2017-01-18T07:20:14.692Z,69.01
2017-01-18T07:21:14.700Z,69.1
2017-01-18T07:22:14.714Z,69.2
2017-01-18T07:23:14.722Z,69.01
2017-01-18T07:24:14.734Z,68.91
2017-01-18T07:25:14.746Z,68.82
2017-01-18T07:26:14.757Z,69.2
2017-01-18T07:27:14.771Z,69.2
2017-01-18T07:28:14.779Z,69.2
2017-01-18T07:29:14.904Z,68.91
2017-01-18T07:30:14.802Z,68.76
2017-01-18T07:31:14.809Z,69.57
2017-01-18T07:32:14.823Z,68.91
2017-01-18T07:33:14.834Z,68.95
2017-01-18T07:34:14.906Z,69.23
2017-01-18T07:35:14.971Z,68.95
2017-01-18T07:36:14.868Z,68.76
2017-01-18T07:37:14.875Z,68.95
2017-01-18T07:38:14.888Z,68.85
2017-01-18T07:39:14.896Z,68.85
2017-01-18T07:40:14.906Z,68.95
2017-01-18T07:41:14.918Z,69.04
2017-01-18T07:42:14.929Z,69.04
2017-01-18T07:43:14.938Z,69.23
2017-01-18T07:44:14.950Z,69.23
2017-01-18T07:45:14.961Z,69.23
2017-01-18T07:46:14.972Z,68.95
2017-01-18T07:47:14.984Z,69.13
2017-01-18T07:48:14.994Z,68.95
2017-01-18T07:49:15.006Z,68.66
2017-01-18T07:50:15.015Z,68.95
2017-01-18T07:51:15.027Z,68.85
2017-01-18T07:52:15.037Z,68.85
2017-01-18T07:53:15.047Z,68.85
2017-01-18T07:54:15.058Z,69.13
2017-01-18T07:55:15.071Z,69.23
2017-01-18T07:56:15.080Z,69.13
2017-01-18T07:57:15.089Z,69.04
2017-01-18T07:58:15.103Z,68.85
2017-01-18T07:59:15.113Z,68.85
2017-01-18T08:00:15.127Z,68.95
2017-01-18T08:01:15.133Z,68.76
2017-01-18T08:02:15.149Z,68.76
2017-01-18T08:03:15.156Z,68.95
2017-01-18T08:04:15.167Z,68.95
2017-01-18T08:05:15.178Z,68.76
2017-01-18T08:06:15.188Z,68.85
2017-01-18T08:07:15.199Z,68.76
2017-01-18T08:08:15.209Z,69.13
2017-01-18T08:09:15.223Z,69.23
2017-01-18T08:10:15.234Z,69.23
2017-01-18T08:11:15.242Z,69.04
2017-01-18T08:12:15.253Z,69.33
2017-01-18T08:13:15.266Z,69.23
2017-01-18T08:14:15.279Z,69.04
2017-01-18T08:15:15.286Z,68.95
2017-01-18T08:16:15.300Z,69.04
2017-01-18T08:17:15.308Z,68.95
2017-01-18T08:18:15.318Z,69.04
2017-01-18T08:19:15.329Z,69.04
2017-01-18T08:20:15.352Z,69.04
2017-01-18T08:21:15.357Z,69.23
2017-01-18T08:22:15.363Z,69.04
2017-01-18T08:23:15.372Z,69.9
2017-01-18T08:24:15.386Z,69.13
2017-01-18T08:25:15.396Z,68.95
2017-01-18T08:26:15.409Z,69.23
2017-01-18T08:27:15.419Z,69.23
2017-01-18T08:28:15.429Z,69.04
2017-01-18T08:29:15.441Z,68.95
2017-01-18T08:30:15.448Z,68.95
2017-01-18T08:31:15.472Z,68.85
2017-01-18T08:32:15.473Z,69.04
2017-01-18T08:33:15.483Z,69.13
2017-01-18T08:34:15.495Z,69.23
2017-01-18T08:35:15.505Z,68.85
2017-01-18T08:36:15.516Z,68.85
2017-01-18T08:37:15.529Z,68.76
2017-01-18T08:38:15.542Z,68.85
2017-01-18T08:39:15.550Z,69.13
2017-01-18T08:40:15.560Z,68.76
2017-01-18T08:41:15.602Z,69.33
2017-01-18T08:42:15.586Z,69.13
2017-01-18T08:43:15.592Z,68.85
2017-01-18T08:44:15.606Z,69.13
2017-01-18T08:45:15.616Z,69.23
2017-01-18T08:46:15.627Z,68.85
2017-01-18T08:47:15.638Z,68.76
2017-01-18T08:48:15.649Z,68.66
2017-01-18T08:49:15.661Z,68.95
2017-01-18T08:50:15.672Z,68.66
2017-01-18T08:51:15.683Z,68.85
2017-01-18T08:52:15.694Z,68.85
2017-01-18T08:53:15.706Z,68.76
2017-01-18T08:54:15.718Z,68.76
2017-01-18T08:55:15.732Z,68.76
2017-01-18T08:56:15.740Z,68.76
2017-01-18T08:57:15.750Z,69.04
2017-01-18T08:58:15.762Z,68.95
2017-01-18T08:59:15.770Z,69.13
2017-01-18T09:00:15.786Z,69.04
2017-01-18T09:01:15.794Z,68.57
2017-01-18T09:02:15.804Z,68.48
2017-01-18T09:03:15.827Z,68.29
2017-01-18T09:04:15.830Z,68.19
2017-01-18T09:05:15.840Z,68.29
2017-01-18T09:06:15.847Z,68.38
2017-01-18T09:07:15.863Z,68.29
2017-01-18T09:08:15.874Z,68.1
2017-01-18T09:09:15.882Z,68.57
2017-01-18T09:10:15.895Z,68.1
2017-01-18T09:11:15.905Z,68.1
2017-01-18T09:12:15.916Z,68.48
2017-01-18T09:13:15.927Z,68.19
2017-01-18T09:14:15.937Z,68.29
2017-01-18T09:15:15.950Z,68.1
2017-01-18T09:16:15.964Z,67.9
2017-01-18T09:17:15.972Z,68.1
2017-01-18T09:18:15.986Z,67.43
2017-01-18T09:19:15.995Z,67.81
2017-01-18T09:20:16.005Z,67.71
2017-01-18T09:21:16.015Z,67.43
2017-01-18T09:22:16.029Z,67.71
2017-01-18T09:23:16.040Z,67.52
2017-01-18T09:24:16.053Z,67.52
2017-01-18T09:25:16.059Z,67.43
2017-01-18T09:26:16.074Z,67.52
2017-01-18T09:27:16.082Z,67.52
2017-01-18T09:28:16.097Z,67.24
2017-01-18T09:29:16.108Z,67.43
2017-01-18T09:30:16.120Z,67.43
2017-01-18T09:31:16.127Z,67.71
2017-01-18T09:32:16.139Z,68
2017-01-18T09:33:16.150Z,68.38
2017-01-18T09:34:16.165Z,67.71
2017-01-18T09:35:16.172Z,67.33
2017-01-18T09:36:16.182Z,67.43
2017-01-18T09:37:16.195Z,67.14
2017-01-18T09:38:16.204Z,67.43
2017-01-18T09:39:16.215Z,67.14
2017-01-18T09:40:16.227Z,67.43
2017-01-18T09:41:16.243Z,67.43
2017-01-18T09:42:16.250Z,67.24
2017-01-18T09:43:16.261Z,67.43
2017-01-18T09:44:16.273Z,66.48
2017-01-18T09:45:16.287Z,66.58
2017-01-18T09:46:16.296Z,66.96
2017-01-18T09:47:16.304Z,66.86
2017-01-18T09:48:16.317Z,67.24
2017-01-18T09:49:16.331Z,66.86
2017-01-18T09:50:16.338Z,67.05
2017-01-18T09:51:16.352Z,67.33
2017-01-18T09:52:16.364Z,67.33
2017-01-18T09:53:16.374Z,66.86
2017-01-18T09:54:16.386Z,67.05
2017-01-18T09:55:16.398Z,67.43
2017-01-18T09:56:16.412Z,67.24
2017-01-18T09:57:16.418Z,67.18
2017-01-18T09:58:16.432Z,67.24
2017-01-18T09:59:16.441Z,67.14
2017-01-18T10:00:16.455Z,67.62
2017-01-18T10:01:16.465Z,67.52
2017-01-18T10:02:16.477Z,66.67
2017-01-18T10:03:16.487Z,66.39
2017-01-18T10:04:16.500Z,67.05
2017-01-18T10:05:16.510Z,66.86
2017-01-18T10:06:16.522Z,66.96
2017-01-18T10:07:16.533Z,67.62
2017-01-18T10:08:16.550Z,67.14
2017-01-18T10:09:16.561Z,67.05
2017-01-18T10:10:16.568Z,67.05
2017-01-18T10:11:16.579Z,67.71
2017-01-18T10:12:16.588Z,67.52
2017-01-18T10:13:16.600Z,67.27
2017-01-18T10:14:16.611Z,67.24
2017-01-18T10:15:17.019Z,67.56
2017-01-18T10:16:16.636Z,67.33
2017-01-18T10:17:16.648Z,66.86
2017-01-18T10:18:16.659Z,66.67
2017-01-18T10:19:16.672Z,66.86
2017-01-18T10:20:16.682Z,66.77
2017-01-18T10:21:16.693Z,66.48
2017-01-18T10:22:16.710Z,66.48
2017-01-18T10:23:16.722Z,66.52
2017-01-18T10:24:16.730Z,66.96
2017-01-18T10:25:16.742Z,66.42
2017-01-18T10:26:16.762Z,66.8
2017-01-18T10:27:16.763Z,66.96
2017-01-18T10:28:16.775Z,67.08
2017-01-18T10:29:16.831Z,66.61
2017-01-18T10:30:31.687Z,66.89
2017-01-18T10:31:16.811Z,66.8
2017-01-18T10:32:16.822Z,66.48
2017-01-18T10:33:16.834Z,66.99
2017-01-18T10:34:16.845Z,66.71
2017-01-18T10:35:16.858Z,66.77
2017-01-18T10:36:16.867Z,66.52
2017-01-18T10:37:16.878Z,66.33
2017-01-18T10:38:16.889Z,66.77
2017-01-18T10:39:16.903Z,66.89
2017-01-18T10:40:16.913Z,66.96
2017-01-18T10:41:16.926Z,66.89
2017-01-18T10:42:16.939Z,66.52
2017-01-18T10:43:16.951Z,66.89
2017-01-18T10:44:16.975Z,66.99
2017-01-18T10:45:16.973Z,66.61
2017-01-18T10:46:17.085Z,66.8
2017-01-18T10:47:16.998Z,66.33
2017-01-18T10:48:17.006Z,66.61
2017-01-18T10:49:17.018Z,67.08
2017-01-18T10:50:17.031Z,66.89
2017-01-18T10:51:17.042Z,66.89
2017-01-18T10:52:17.053Z,67.27
2017-01-18T10:53:17.066Z,66.99
2017-01-18T10:54:17.081Z,66.8
2017-01-18T10:55:17.088Z,66.52
2017-01-18T10:56:17.099Z,66.71
2017-01-18T10:57:17.114Z,66.99
2017-01-18T10:58:17.122Z,66.33
2017-01-18T10:59:17.134Z,66.86
2017-01-18T11:00:17.147Z,67.27
2017-01-18T11:01:17.156Z,66.99
2017-01-18T11:02:17.171Z,66.71
2017-01-18T11:03:17.179Z,66.48
2017-01-18T11:04:17.193Z,67.43
2017-01-18T11:05:17.205Z,67.85
2017-01-18T11:06:17.215Z,66.71
2017-01-18T11:07:17.228Z,67.18
2017-01-18T11:08:17.242Z,66.89
2017-01-18T11:09:17.251Z,67.37
2017-01-18T11:10:17.260Z,66.52
2017-01-18T11:11:17.274Z,66.61
2017-01-18T11:12:17.288Z,66.71
2017-01-18T11:13:17.297Z,66.71
2017-01-18T11:14:17.311Z,67.18
2017-01-18T11:15:17.319Z,67.46
2017-01-18T11:16:17.337Z,67.18
2017-01-18T11:17:17.345Z,66.61
2017-01-18T11:18:17.356Z,66.8
2017-01-18T11:19:17.367Z,66.8
2017-01-18T11:20:17.378Z,66.89
2017-01-18T11:21:17.388Z,67.08
2017-01-18T11:22:17.401Z,66.89
2017-01-18T11:23:17.417Z,66.52
2017-01-18T11:24:17.425Z,66.89
2017-01-18T11:25:17.436Z,66.71
2017-01-18T11:26:17.451Z,67.27
2017-01-18T11:27:17.459Z,66.89
2017-01-18T11:28:17.471Z,66.52
2017-01-18T11:29:17.490Z,66.71
2017-01-18T11:30:17.495Z,66.42
2017-01-18T11:31:17.508Z,66.71
2017-01-18T11:32:17.519Z,66.71
2017-01-18T11:33:17.533Z,66.99
2017-01-18T11:34:17.539Z,66.42
2017-01-18T11:35:17.555Z,66.61
2017-01-18T11:36:17.565Z,66.71
2017-01-18T11:37:17.575Z,66.8
2017-01-18T11:38:17.589Z,66.14
2017-01-18T11:39:17.599Z,66.04
2017-01-18T11:40:17.611Z,66.61
2017-01-18T11:41:17.624Z,66.33
2017-01-18T11:42:17.636Z,66.14
2017-01-18T11:43:17.646Z,66.61
2017-01-18T11:44:17.660Z,66.23
2017-01-18T11:45:17.673Z,66.14
2017-01-18T11:46:17.681Z,66.71
2017-01-18T11:47:17.694Z,66.52
2017-01-18T11:48:17.706Z,66.52
2017-01-18T11:49:17.721Z,66.52
2017-01-18T11:50:17.735Z,66.23
2017-01-18T11:51:17.740Z,66.14
2017-01-18T11:52:17.751Z,66.14
2017-01-18T11:53:17.766Z,66.71
2017-01-18T11:54:17.777Z,66.61
2017-01-18T11:55:17.789Z,66.89
2017-01-18T11:56:17.801Z,67.08
2017-01-18T11:57:17.815Z,66.8
2017-01-18T11:58:17.824Z,66.71
2017-01-18T11:59:17.837Z,66.61
2017-01-18T12:00:17.847Z,66.04
2017-01-18T12:01:17.863Z,66.23
2017-01-18T12:02:17.870Z,66.61
2017-01-18T12:03:17.882Z,66.33
2017-01-18T12:04:17.894Z,66.23
2017-01-18T12:05:17.931Z,66.33
2017-01-18T12:06:17.916Z,66.71
2017-01-18T12:07:17.927Z,66.42
2017-01-18T12:08:17.941Z,66.33
2017-01-18T12:09:17.953Z,66.89
2017-01-18T12:10:17.966Z,66.14
2017-01-18T12:11:17.978Z,66.04
2017-01-18T12:12:17.989Z,66.42
2017-01-18T12:13:18.000Z,65.66
2017-01-18T12:14:18.014Z,65.75
2017-01-18T12:15:18.027Z,65.75
2017-01-18T12:16:18.036Z,65.95
2017-01-18T12:17:18.053Z,65.95
2017-01-18T12:18:18.059Z,65.85
2017-01-18T12:19:18.067Z,65.75
2017-01-18T12:20:18.083Z,65.75
2017-01-18T12:21:18.096Z,66.42
2017-01-18T12:22:18.112Z,66.42
2017-01-18T12:23:18.117Z,65.95
2017-01-18T12:24:18.130Z,66.04
2017-01-18T12:25:18.139Z,66.14
2017-01-18T12:26:18.155Z,66.04
2017-01-18T12:27:18.166Z,66.04
2017-01-18T12:28:18.576Z,66.61
2017-01-18T12:29:18.189Z,65.56
2017-01-18T12:30:18.197Z,66.23
2017-01-18T12:31:18.210Z,66.61
2017-01-18T12:32:18.222Z,66.33
2017-01-18T12:33:18.235Z,66.42
2017-01-18T12:34:18.248Z,66.8
2017-01-18T12:35:18.257Z,66.42
2017-01-18T12:36:18.272Z,66.23
2017-01-18T12:37:18.283Z,66.33
2017-01-18T12:38:18.297Z,66.04
2017-01-18T12:39:18.308Z,66.61
2017-01-18T12:40:18.320Z,66.14
2017-01-18T12:41:18.329Z,66.23
2017-01-18T12:42:18.341Z,66.23
2017-01-18T12:43:18.355Z,66.23
2017-01-18T12:44:18.362Z,66.23
2017-01-18T12:45:18.375Z,66.14
2017-01-18T12:46:18.386Z,66.61
2017-01-18T12:47:18.398Z,66.89
2017-01-18T12:48:18.410Z,66.8
2017-01-18T12:49:18.420Z,66.71
2017-01-18T12:50:18.434Z,66.8
2017-01-18T12:51:18.448Z,66.8
2017-01-18T12:52:18.459Z,66.61
2017-01-18T12:53:18.467Z,66.42
2017-01-18T12:54:18.488Z,66.23
2017-01-18T12:55:18.494Z,66.23